Airfield :
LOGIN :

Register | Disclaimer

   EN    FR    IT 

 










Legend :    VFR   Marginal VFR   IFR   Intensive IFR   Very Intensive IFR
Visi :
Ceiling :
>= 8 km
>= 3000ft
5 to 8 km
1000 to 3000 ft
1500m to 5 km
500 to 1000 ft
800 to 1500m
200 to 500 ft
< 800m
< 200 ft
Symbols :   Thunderstorms  Fog  Heavy snow  Heavy precipitations  Wind > 20 kt
SIGMETs :     Misc.  Thunderstorms  Icing  Turbulence  Mountain Waves  Volcanic Ashes






- Airport Elevation : 416 ft
- IATA code : OVD


LEAS - Asturias

CURRENT METAR :
  • 161930Z VRB01KT 8000 -RA FEW040 SCT055 BKN075 15/15 Q1011 TEMPO RA

EXPIRED METARs :
  • 161900Z 15003KT 110V170 8000 RA FEW040 SCT060 BKN080 16/15 Q1011 NOSIG
  • 161830Z VRB01KT 8000 RA SCT040 BKN060 16/15 Q1011 TEMPO RA
  • 161804Z VRB01KT 6000 RA FEW020 BKN055 16/15 Q1011 TEMPO RA
  • 161730Z 09003KT 7000 -RA FEW020 BKN060 16/15 Q1011 TEMPO RA
  • 161711Z VRB03KT 4000 -RA BR FEW020 BKN050 16/16 Q1011 TEMPO RA
  • 161700Z 13004KT 100V170 4000 1000SE RA BR SCT005 BKN020 17/16 Q1011 TEMPO RA

TAF TAF LEAS
Valid from the 16 at 15:00 until the 17 at 15:00 UTC


161400Z 1615/1715 24007KT 9999 BKN067 TX21/1615Z TN14/1706Z
PROB40
TEMPO 1615/1618 33010KT
TEMPO 1615/1618 RA
PROB40
TEMPO 1623/1709 30010KT 3000 RA BKN010
BECMG 1709/1712 31011KT



MET'MAP, your aeronautical weather chart ! - Copyright ORBIFLY December 2007 - Disclaimer

ORBIFLY MET'MAP TEAM :

Programming & Development : Alexandra Zaïnal
Concept & Development : Baudouin d'Aumeries
Co-Development & Prog : Marc-Olivier Méhu
Technical & hardware support : Manuel Goepfert

Contact : metmap@orbifly.com




SOURCES & CREDITS :

   NOAA